Pelican Narrows, Canada
Current Conditions -  °F | °C
As of 1:00 PM on Saturday 20 Dec 2014 (Local Time) from CYFO Reporting Station
Freezing Drizzle Freezing Drizzle  
Wind Chill:   Ceiling: 300
Heat Index: 18°   Visibility: 3mi
Dew Point: 16°   Wind: 8mph
Humidity: 93%   Direction: 140°SE
Pressure: 29.85"   Gusts: NA
Location:  55.17°N, 102.95°W
Report Text: CYFO 201900Z 14007KT 3SM -FZDZ BR OVC003 M08/M09 A2985 RMK ST8 SLP133
Loading
Personal Weather Stations






























Interactive Weather Map New forecast layout! Learn more

10-Day Weather Forecast

Advertisements
Track Severe Weather on mobile